sensor_id;sensor_type;location;lat;lon;timestamp;P1;durP1;ratioP1;P2;durP2;ratioP2
73959;SDS011;62316;48.920;2.342;2023-04-03T04:00:55;22.25;;;19.00;;
73959;SDS011;62316;48.920;2.342;2023-04-03T04:03:27;22.50;;;19.50;;
73959;SDS011;62316;48.920;2.342;2023-04-03T04:05:53;18.25;;;18.25;;
73959;SDS011;62316;48.920;2.342;2023-04-03T04:08:18;32.00;;;22.50;;
73959;SDS011;62316;48.920;2.342;2023-04-03T04:10:44;25.50;;;22.00;;
73959;SDS011;62316;48.920;2.342;2023-04-03T04:13:09;25.50;;;22.00;;
73959;SDS011;62316;48.920;2.342;2023-04-03T04:15:35;22.50;;;19.75;;
73959;SDS011;62316;48.920;2.342;2023-04-03T04:18:02;19.25;;;18.75;;
73959;SDS011;62316;48.920;2.342;2023-04-03T04:20:33;21.25;;;18.00;;
73959;SDS011;62316;48.920;2.342;2023-04-03T04:23:03;15.00;;;13.00;;
73959;SDS011;62316;48.920;2.342;2023-04-03T04:25:34;19.75;;;19.50;;
73959;SDS011;62316;48.920;2.342;2023-04-03T04:28:01;21.00;;;19.00;;
73959;SDS011;62316;48.920;2.342;2023-04-03T04:30:31;23.50;;;20.25;;
73959;SDS011;62316;48.920;2.342;2023-04-03T04:32:59;21.50;;;16.25;;
73959;SDS011;62316;48.920;2.342;2023-04-03T04:35:34;25.75;;;19.00;;
73959;SDS011;62316;48.920;2.342;2023-04-03T04:38:03;22.00;;;19.75;;
73959;SDS011;62316;48.920;2.342;2023-04-03T04:40:33;20.00;;;17.75;;
73959;SDS011;62316;48.920;2.342;2023-04-03T04:43:06;21.00;;;20.00;;
73959;SDS011;62316;48.920;2.342;2023-04-03T04:45:43;21.00;;;17.25;;
73959;SDS011;62316;48.920;2.342;2023-04-03T04:48:10;21.25;;;18.25;;
73959;SDS011;62316;48.920;2.342;2023-04-03T04:50:36;22.25;;;22.25;;
73959;SDS011;62316;48.920;2.342;2023-04-03T04:53:03;25.00;;;21.75;;
73959;SDS011;62316;48.920;2.342;2023-04-03T04:55:30;23.00;;;23.00;;
73959;SDS011;62316;48.920;2.342;2023-04-03T04:57:55;24.75;;;20.75;;
73959;SDS011;62316;48.920;2.342;2023-04-03T05:00:24;25.75;;;21.00;;
73959;SDS011;62316;48.920;2.342;2023-04-03T05:02:51;27.00;;;24.75;;
73959;SDS011;62316;48.920;2.342;2023-04-03T05:05:21;24.00;;;23.00;;
73959;SDS011;62316;48.920;2.342;2023-04-03T05:07:48;20.75;;;20.50;;
73959;SDS011;62316;48.920;2.342;2023-04-03T05:10:20;23.00;;;20.00;;
73959;SDS011;62316;48.920;2.342;2023-04-03T05:12:45;22.00;;;20.00;;
73959;SDS011;62316;48.920;2.342;2023-04-03T05:15:12;40.25;;;36.00;;
73959;SDS011;62316;48.920;2.342;2023-04-03T05:17:37;26.50;;;24.75;;
73959;SDS011;62316;48.920;2.342;2023-04-03T05:20:05;22.25;;;18.75;;
73959;SDS011;62316;48.920;2.342;2023-04-03T05:22:31;30.75;;;26.75;;
73959;SDS011;62316;48.920;2.342;2023-04-03T05:24:58;21.00;;;19.75;;
73959;SDS011;62316;48.920;2.342;2023-04-03T05:27:29;28.00;;;19.25;;
73959;SDS011;62316;48.920;2.342;2023-04-03T05:29:54;18.00;;;18.00;;
73959;SDS011;62316;48.920;2.342;2023-04-03T05:32:23;27.75;;;22.25;;
73959;SDS011;62316;48.920;2.342;2023-04-03T05:34:53;23.50;;;23.50;;
73959;SDS011;62316;48.920;2.342;2023-04-03T05:37:19;27.75;;;25.75;;
73959;SDS011;62316;48.920;2.342;2023-04-03T05:39:45;23.50;;;21.50;;
73959;SDS011;62316;48.920;2.342;2023-04-03T05:42:11;23.75;;;23.75;;
73959;SDS011;62316;48.920;2.342;2023-04-03T05:44:39;27.50;;;25.25;;
73959;SDS011;62316;48.920;2.342;2023-04-03T05:47:05;29.75;;;27.50;;
73959;SDS011;62316;48.920;2.342;2023-04-03T05:49:32;28.00;;;25.75;;
73959;SDS011;62316;48.920;2.342;2023-04-03T05:51:58;28.00;;;24.00;;
73959;SDS011;62316;48.920;2.342;2023-04-03T05:54:26;30.00;;;23.25;;
73959;SDS011;62316;48.920;2.342;2023-04-03T05:56:56;60.25;;;48.25;;
73959;SDS011;62316;48.920;2.342;2023-04-03T05:59:22;26.00;;;22.00;;
73959;SDS011;62316;48.920;2.342;2023-04-03T06:01:48;23.75;;;19.50;;
73959;SDS011;62316;48.920;2.342;2023-04-03T06:04:15;33.00;;;29.00;;
73959;SDS011;62316;48.920;2.342;2023-04-03T06:06:48;24.00;;;21.00;;
73959;SDS011;62316;48.920;2.342;2023-04-03T06:09:20;32.50;;;29.75;;
73959;SDS011;62316;48.920;2.342;2023-04-03T06:11:47;32.50;;;28.00;;
73959;SDS011;62316;48.920;2.342;2023-04-03T06:14:16;31.50;;;29.00;;
73959;SDS011;62316;48.920;2.342;2023-04-03T06:16:47;36.25;;;33.50;;
73959;SDS011;62316;48.920;2.342;2023-04-03T06:19:13;34.00;;;27.00;;
73959;SDS011;62316;48.920;2.342;2023-04-03T06:21:42;35.75;;;31.25;;
73959;SDS011;62316;48.920;2.342;2023-04-03T06:24:07;36.50;;;30.50;;
73959;SDS011;62316;48.920;2.342;2023-04-03T06:26:33;28.00;;;27.25;;
73959;SDS011;62316;48.920;2.342;2023-04-03T06:28:59;28.75;;;21.75;;
73959;SDS011;62316;48.920;2.342;2023-04-03T06:31:25;25.50;;;24.00;;
73959;SDS011;62316;48.920;2.342;2023-04-03T06:33:51;39.00;;;31.50;;
73959;SDS011;62316;48.920;2.342;2023-04-03T06:36:21;32.25;;;28.00;;
73959;SDS011;62316;48.920;2.342;2023-04-03T06:38:48;29.75;;;29.75;;
73959;SDS011;62316;48.920;2.342;2023-04-03T06:41:15;29.50;;;25.50;;
73959;SDS011;62316;48.920;2.342;2023-04-03T06:43:44;33.25;;;28.75;;
73959;SDS011;62316;48.920;2.342;2023-04-03T06:46:14;23.00;;;21.25;;
73959;SDS011;62316;48.920;2.342;2023-04-03T06:48:44;29.00;;;23.25;;
73959;SDS011;62316;48.920;2.342;2023-04-03T06:51:31;24.25;;;23.50;;
73959;SDS011;62316;48.920;2.342;2023-04-03T06:53:57;31.00;;;28.50;;
73959;SDS011;62316;48.920;2.342;2023-04-03T06:56:24;31.75;;;25.50;;
73959;SDS011;62316;48.920;2.342;2023-04-03T06:58:53;33.25;;;29.00;;
73959;SDS011;62316;48.920;2.342;2023-04-03T07:01:21;27.50;;;27.50;;
73959;SDS011;62316;48.920;2.342;2023-04-03T07:03:48;23.00;;;23.00;;
73959;SDS011;62316;48.920;2.342;2023-04-03T07:06:14;26.25;;;24.50;;
73959;SDS011;62316;48.920;2.342;2023-04-03T07:08:41;24.00;;;23.25;;
73959;SDS011;62316;48.920;2.342;2023-04-03T07:11:08;34.00;;;29.25;;
73959;SDS011;62316;48.920;2.342;2023-04-03T07:13:34;45.25;;;38.75;;
73959;SDS011;62316;48.920;2.342;2023-04-03T07:16:01;32.75;;;30.50;;
73959;SDS011;62316;48.920;2.342;2023-04-03T07:18:28;25.50;;;25.50;;
73959;SDS011;62316;48.920;2.342;2023-04-03T07:20:54;30.25;;;26.50;;
73959;SDS011;62316;48.920;2.342;2023-04-03T07:23:20;27.50;;;19.75;;
73959;SDS011;62316;48.920;2.342;2023-04-03T07:25:46;18.75;;;16.25;;
73959;SDS011;62316;48.920;2.342;2023-04-03T07:28:13;19.50;;;17.25;;
73959;SDS011;62316;48.920;2.342;2023-04-03T07:30:46;22.00;;;21.25;;
73959;SDS011;62316;48.920;2.342;2023-04-03T07:33:14;21.50;;;20.50;;
73959;SDS011;62316;48.920;2.342;2023-04-03T07:35:41;22.00;;;20.00;;
73959;SDS011;62316;48.920;2.342;2023-04-03T07:38:11;21.25;;;18.50;;
73959;SDS011;62316;48.920;2.342;2023-04-03T07:40:38;22.50;;;22.50;;
73959;SDS011;62316;48.920;2.342;2023-04-03T07:43:05;24.25;;;23.00;;
73959;SDS011;62316;48.920;2.342;2023-04-03T07:45:31;17.00;;;17.00;;
73959;SDS011;62316;48.920;2.342;2023-04-03T07:47:57;15.25;;;11.25;;
73959;SDS011;62316;48.920;2.342;2023-04-03T07:50:22;22.50;;;21.50;;
73959;SDS011;62316;48.920;2.342;2023-04-03T07:52:48;17.50;;;15.00;;
73959;SDS011;62316;48.920;2.342;2023-04-03T07:55:15;13.50;;;13.50;;
73959;SDS011;62316;48.920;2.342;2023-04-03T07:57:41;22.25;;;19.75;;
73959;SDS011;62316;48.920;2.342;2023-04-03T08:00:07;15.00;;;12.50;;
73959;SDS011;62316;48.920;2.342;2023-04-03T08:02:34;24.75;;;21.50;;
73959;SDS011;62316;48.920;2.342;2023-04-03T08:05:00;17.25;;;17.25;;
73959;SDS011;62316;48.920;2.342;2023-04-03T08:07:25;14.50;;;12.00;;
73959;SDS011;62316;48.920;2.342;2023-04-03T08:09:51;23.50;;;18.50;;
73959;SDS011;62316;48.920;2.342;2023-04-03T08:12:17;20.25;;;20.25;;
73959;SDS011;62316;48.920;2.342;2023-04-03T08:15:03;18.25;;;16.00;;
73959;SDS011;62316;48.920;2.342;2023-04-03T08:17:43;20.50;;;18.75;;
73959;SDS011;62316;48.920;2.342;2023-04-03T08:20:10;18.25;;;16.75;;
73959;SDS011;62316;48.920;2.342;2023-04-03T08:22:37;19.00;;;17.25;;
73959;SDS011;62316;48.920;2.342;2023-04-03T08:25:02;23.50;;;17.75;;
73959;SDS011;62316;48.920;2.342;2023-04-03T08:27:28;15.00;;;15.00;;
73959;SDS011;62316;48.920;2.342;2023-04-03T08:29:54;18.00;;;14.75;;
73959;SDS011;62316;48.920;2.342;2023-04-03T08:32:21;12.50;;;12.50;;
73959;SDS011;62316;48.920;2.342;2023-04-03T08:34:54;16.25;;;13.75;;
73959;SDS011;62316;48.920;2.342;2023-04-03T08:37:28;15.00;;;13.75;;
73959;SDS011;62316;48.920;2.342;2023-04-03T08:39:58;22.25;;;18.00;;
73959;SDS011;62316;48.920;2.342;2023-04-03T08:45:20;24.00;;;19.25;;
73959;SDS011;62316;48.920;2.342;2023-04-03T08:48:08;17.00;;;15.75;;
73959;SDS011;62316;48.920;2.342;2023-04-03T08:50:41;18.00;;;15.75;;
73959;SDS011;62316;48.920;2.342;2023-04-03T08:53:14;9.00;;;9.00;;
73959;SDS011;62316;48.920;2.342;2023-04-03T08:55:45;17.00;;;13.00;;
73959;SDS011;62316;48.920;2.342;2023-04-03T08:58:12;17.25;;;15.50;;
73959;SDS011;62316;48.920;2.342;2023-04-03T09:03:18;12.75;;;12.75;;
73959;SDS011;62316;48.920;2.342;2023-04-03T09:05:53;10.75;;;9.25;;
73959;SDS011;62316;48.920;2.342;2023-04-03T09:08:22;10.75;;;8.50;;
73959;SDS011;62316;48.920;2.342;2023-04-03T09:11:21;12.00;;;10.00;;
73959;SDS011;62316;48.920;2.342;2023-04-03T09:14:07;10.50;;;10.50;;
73959;SDS011;62316;48.920;2.342;2023-04-03T09:16:55;8.50;;;7.25;;
73959;SDS011;62316;48.920;2.342;2023-04-03T09:21:58;11.75;;;9.00;;
73959;SDS011;62316;48.920;2.342;2023-04-03T09:24:28;15.00;;;12.00;;
73959;SDS011;62316;48.920;2.342;2023-04-03T09:26:56;14.00;;;11.75;;
73959;SDS011;62316;48.920;2.342;2023-04-03T09:29:25;14.50;;;13.50;;
73959;SDS011;62316;48.920;2.342;2023-04-03T09:31:52;10.75;;;10.25;;
73959;SDS011;62316;48.920;2.342;2023-04-03T09:34:23;11.50;;;8.50;;
73959;SDS011;62316;48.920;2.342;2023-04-03T09:36:52;10.25;;;8.75;;
73959;SDS011;62316;48.920;2.342;2023-04-03T09:39:28;9.50;;;8.50;;
73959;SDS011;62316;48.920;2.342;2023-04-03T09:42:04;9.25;;;8.25;;
73959;SDS011;62316;48.920;2.342;2023-04-03T09:44:33;13.50;;;10.00;;
73959;SDS011;62316;48.920;2.342;2023-04-03T09:47:18;11.00;;;9.25;;
73959;SDS011;62316;48.920;2.342;2023-04-03T09:50:09;7.00;;;7.00;;
73959;SDS011;62316;48.920;2.342;2023-04-03T09:53:06;8.25;;;8.25;;
73959;SDS011;62316;48.920;2.342;2023-04-03T09:55:55;12.50;;;12.50;;
73959;SDS011;62316;48.920;2.342;2023-04-03T09:58:43;8.25;;;8.00;;
73959;SDS011;62316;48.920;2.342;2023-04-03T10:04:16;11.00;;;11.00;;
73959;SDS011;62316;48.920;2.342;2023-04-03T10:06:48;8.25;;;7.50;;
73959;SDS011;62316;48.920;2.342;2023-04-03T10:09:26;12.50;;;11.50;;
73959;SDS011;62316;48.920;2.342;2023-04-03T10:12:22;13.25;;;8.75;;
73959;SDS011;62316;48.920;2.342;2023-04-03T10:14:57;7.50;;;7.50;;
73959;SDS011;62316;48.920;2.342;2023-04-03T10:20:22;10.25;;;9.75;;
73959;SDS011;62316;48.920;2.342;2023-04-03T10:25:22;9.00;;;9.00;;
73959;SDS011;62316;48.920;2.342;2023-04-03T10:30:36;9.75;;;9.75;;
73959;SDS011;62316;48.920;2.342;2023-04-03T10:49:45;9.00;;;9.00;;
73959;SDS011;62316;48.920;2.342;2023-04-03T10:52:31;7.50;;;6.50;;
73959;SDS011;62316;48.920;2.342;2023-04-03T10:55:13;6.75;;;6.75;;
73959;SDS011;62316;48.920;2.342;2023-04-03T10:57:45;5.00;;;5.00;;
73959;SDS011;62316;48.920;2.342;2023-04-03T11:00:16;10.50;;;10.50;;
73959;SDS011;62316;48.920;2.342;2023-04-03T11:02:51;9.25;;;7.25;;
73959;SDS011;62316;48.920;2.342;2023-04-03T11:05:29;11.00;;;10.00;;
73959;SDS011;62316;48.920;2.342;2023-04-03T11:08:02;10.75;;;7.75;;
73959;SDS011;62316;48.920;2.342;2023-04-03T11:10:36;8.25;;;7.00;;
73959;SDS011;62316;48.920;2.342;2023-04-03T11:13:13;8.75;;;8.75;;
73959;SDS011;62316;48.920;2.342;2023-04-03T11:16:08;8.75;;;8.75;;
73959;SDS011;62316;48.920;2.342;2023-04-03T11:18:42;10.00;;;8.75;;
73959;SDS011;62316;48.920;2.342;2023-04-03T11:21:14;10.00;;;9.00;;
73959;SDS011;62316;48.920;2.342;2023-04-03T11:23:47;6.75;;;5.50;;
73959;SDS011;62316;48.920;2.342;2023-04-03T11:26:14;10.00;;;8.00;;
73959;SDS011;62316;48.920;2.342;2023-04-03T11:28:42;6.75;;;6.75;;
73959;SDS011;62316;48.920;2.342;2023-04-03T11:31:13;7.25;;;6.25;;
73959;SDS011;62316;48.920;2.342;2023-04-03T11:33:45;7.25;;;7.25;;
73959;SDS011;62316;48.920;2.342;2023-04-03T11:36:24;7.75;;;5.75;;
73959;SDS011;62316;48.920;2.342;2023-04-03T11:38:52;4.00;;;4.00;;
73959;SDS011;62316;48.920;2.342;2023-04-03T11:41:30;7.00;;;7.00;;
73959;SDS011;62316;48.920;2.342;2023-04-03T11:44:00;7.00;;;6.00;;
73959;SDS011;62316;48.920;2.342;2023-04-03T11:49:50;8.50;;;6.75;;
73959;SDS011;62316;48.920;2.342;2023-04-03T12:05:47;3.50;;;3.50;;
73959;SDS011;62316;48.920;2.342;2023-04-03T12:21:21;3.00;;;3.00;;
73959;SDS011;62316;48.920;2.342;2023-04-03T12:23:57;5.33;;;3.67;;
73959;SDS011;62316;48.920;2.342;2023-04-03T12:26:30;10.50;;;7.00;;
73959;SDS011;62316;48.920;2.342;2023-04-03T12:28:57;3.00;;;3.00;;
73959;SDS011;62316;48.920;2.342;2023-04-03T12:31:24;7.50;;;6.50;;
73959;SDS011;62316;48.920;2.342;2023-04-03T12:34:00;4.75;;;4.75;;
73959;SDS011;62316;48.920;2.342;2023-04-03T12:36:42;9.25;;;8.00;;
73959;SDS011;62316;48.920;2.342;2023-04-03T12:47:49;6.75;;;6.75;;
73959;SDS011;62316;48.920;2.342;2023-04-03T12:53:05;4.50;;;4.50;;
73959;SDS011;62316;48.920;2.342;2023-04-03T12:55:32;4.25;;;3.00;;
73959;SDS011;62316;48.920;2.342;2023-04-03T12:58:12;5.33;;;4.33;;
73959;SDS011;62316;48.920;2.342;2023-04-03T13:00:40;5.00;;;5.00;;
73959;SDS011;62316;48.920;2.342;2023-04-03T13:03:06;3.75;;;3.00;;
73959;SDS011;62316;48.920;2.342;2023-04-03T13:05:32;4.50;;;3.25;;
73959;SDS011;62316;48.920;2.342;2023-04-03T13:08:03;4.75;;;4.00;;
73959;SDS011;62316;48.920;2.342;2023-04-03T13:10:30;4.00;;;2.25;;
73959;SDS011;62316;48.920;2.342;2023-04-03T13:12:57;5.50;;;3.75;;
73959;SDS011;62316;48.920;2.342;2023-04-03T13:17:53;5.00;;;5.00;;
73959;SDS011;62316;48.920;2.342;2023-04-03T13:20:23;4.00;;;4.00;;
73959;SDS011;62316;48.920;2.342;2023-04-03T13:25:26;4.67;;;4.67;;
73959;SDS011;62316;48.920;2.342;2023-04-03T13:27:53;7.33;;;5.00;;
73959;SDS011;62316;48.920;2.342;2023-04-03T13:32:45;5.00;;;5.00;;
73959;SDS011;62316;48.920;2.342;2023-04-03T13:35:25;4.50;;;4.25;;
73959;SDS011;62316;48.920;2.342;2023-04-03T13:40:58;6.50;;;5.00;;
73959;SDS011;62316;48.920;2.342;2023-04-03T13:43:26;5.00;;;4.00;;
73959;SDS011;62316;48.920;2.342;2023-04-03T13:45:55;5.75;;;4.50;;
73959;SDS011;62316;48.920;2.342;2023-04-03T13:48:40;8.00;;;4.67;;
73959;SDS011;62316;48.920;2.342;2023-04-03T13:53:41;5.50;;;5.25;;
73959;SDS011;62316;48.920;2.342;2023-04-03T13:56:31;4.25;;;4.25;;
73959;SDS011;62316;48.920;2.342;2023-04-03T14:01:41;13.00;;;10.00;;
73959;SDS011;62316;48.920;2.342;2023-04-03T14:04:13;6.00;;;3.75;;
73959;SDS011;62316;48.920;2.342;2023-04-03T14:06:43;6.25;;;4.75;;
73959;SDS011;62316;48.920;2.342;2023-04-03T14:09:09;12.75;;;9.00;;
73959;SDS011;62316;48.920;2.342;2023-04-03T14:11:35;5.00;;;5.00;;
73959;SDS011;62316;48.920;2.342;2023-04-03T14:14:02;7.25;;;6.00;;
73959;SDS011;62316;48.920;2.342;2023-04-03T14:16:31;8.00;;;6.00;;
73959;SDS011;62316;48.920;2.342;2023-04-03T14:18:58;6.50;;;6.50;;
73959;SDS011;62316;48.920;2.342;2023-04-03T14:21:24;4.25;;;4.25;;
73959;SDS011;62316;48.920;2.342;2023-04-03T14:23:49;5.00;;;4.00;;
73959;SDS011;62316;48.920;2.342;2023-04-03T14:26:22;5.00;;;5.00;;
73959;SDS011;62316;48.920;2.342;2023-04-03T14:28:50;5.75;;;5.00;;
73959;SDS011;62316;48.920;2.342;2023-04-03T14:31:18;9.25;;;7.75;;
73959;SDS011;62316;48.920;2.342;2023-04-03T14:33:46;4.75;;;4.75;;
73959;SDS011;62316;48.920;2.342;2023-04-03T14:36:14;6.25;;;6.25;;
73959;SDS011;62316;48.920;2.342;2023-04-03T14:38:44;7.50;;;5.00;;
73959;SDS011;62316;48.920;2.342;2023-04-03T14:41:17;8.50;;;6.00;;
73959;SDS011;62316;48.920;2.342;2023-04-03T14:43:46;4.50;;;3.75;;
73959;SDS011;62316;48.920;2.342;2023-04-03T14:46:15;9.00;;;9.00;;
73959;SDS011;62316;48.920;2.342;2023-04-03T14:48:43;8.00;;;8.00;;
73959;SDS011;62316;48.920;2.342;2023-04-03T14:51:12;8.33;;;6.33;;
73959;SDS011;62316;48.920;2.342;2023-04-03T14:53:39;13.25;;;13.25;;
73959;SDS011;62316;48.920;2.342;2023-04-03T14:56:27;5.75;;;5.75;;
73959;SDS011;62316;48.920;2.342;2023-04-03T14:59:02;4.25;;;4.25;;
73959;SDS011;62316;48.920;2.342;2023-04-03T15:01:28;4.75;;;4.75;;
73959;SDS011;62316;48.920;2.342;2023-04-03T15:03:53;7.75;;;5.00;;
73959;SDS011;62316;48.920;2.342;2023-04-03T15:06:19;4.00;;;4.00;;
73959;SDS011;62316;48.920;2.342;2023-04-03T15:08:46;4.50;;;4.00;;
73959;SDS011;62316;48.920;2.342;2023-04-03T15:11:13;8.50;;;7.00;;
73959;SDS011;62316;48.920;2.342;2023-04-03T15:13:39;7.75;;;7.25;;
73959;SDS011;62316;48.920;2.342;2023-04-03T15:16:05;5.50;;;5.50;;
73959;SDS011;62316;48.920;2.342;2023-04-03T15:18:37;7.75;;;7.25;;
73959;SDS011;62316;48.920;2.342;2023-04-03T15:21:03;6.00;;;6.00;;
73959;SDS011;62316;48.920;2.342;2023-04-03T15:23:29;7.50;;;6.25;;
73959;SDS011;62316;48.920;2.342;2023-04-03T15:25:55;4.00;;;4.00;;
73959;SDS011;62316;48.920;2.342;2023-04-03T15:28:35;9.00;;;7.75;;
73959;SDS011;62316;48.920;2.342;2023-04-03T15:31:02;8.75;;;6.25;;
73959;SDS011;62316;48.920;2.342;2023-04-03T15:33:28;6.00;;;5.50;;
73959;SDS011;62316;48.920;2.342;2023-04-03T15:35:54;9.75;;;6.25;;
73959;SDS011;62316;48.920;2.342;2023-04-03T15:38:20;11.00;;;11.00;;
73959;SDS011;62316;48.920;2.342;2023-04-03T15:40:45;4.67;;;4.67;;
73959;SDS011;62316;48.920;2.342;2023-04-03T15:43:14;6.00;;;6.00;;
73959;SDS011;62316;48.920;2.342;2023-04-03T15:45:40;7.00;;;4.00;;
73959;SDS011;62316;48.920;2.342;2023-04-03T15:48:06;6.67;;;5.67;;
73959;SDS011;62316;48.920;2.342;2023-04-03T15:50:32;11.00;;;8.00;;
73959;SDS011;62316;48.920;2.342;2023-04-03T15:52:58;5.00;;;5.00;;
73959;SDS011;62316;48.920;2.342;2023-04-03T15:55:27;4.00;;;4.00;;
73959;SDS011;62316;48.920;2.342;2023-04-03T15:57:54;3.33;;;3.33;;
73959;SDS011;62316;48.920;2.342;2023-04-03T16:00:20;7.33;;;5.33;;
73959;SDS011;62316;48.920;2.342;2023-04-03T16:02:46;4.00;;;4.00;;
73959;SDS011;62316;48.920;2.342;2023-04-03T16:05:25;5.00;;;5.00;;
73959;SDS011;62316;48.920;2.342;2023-04-03T16:11:02;10.50;;;7.00;;
73959;SDS011;62316;48.920;2.342;2023-04-03T16:14:02;6.00;;;5.00;;
73959;SDS011;62316;48.920;2.342;2023-04-03T16:16:28;5.33;;;4.33;;
73959;SDS011;62316;48.920;2.342;2023-04-03T16:18:54;5.75;;;5.75;;
73959;SDS011;62316;48.920;2.342;2023-04-03T16:21:20;6.25;;;6.25;;
73959;SDS011;62316;48.920;2.342;2023-04-03T16:24:06;8.00;;;6.00;;
73959;SDS011;62316;48.920;2.342;2023-04-03T16:26:55;4.00;;;4.00;;
73959;SDS011;62316;48.920;2.342;2023-04-03T16:29:22;7.75;;;7.75;;
73959;SDS011;62316;48.920;2.342;2023-04-03T16:31:48;5.00;;;5.00;;
73959;SDS011;62316;48.920;2.342;2023-04-03T16:34:13;6.33;;;6.33;;
73959;SDS011;62316;48.920;2.342;2023-04-03T16:36:39;4.00;;;4.00;;
73959;SDS011;62316;48.920;2.342;2023-04-03T16:39:04;4.00;;;4.00;;
73959;SDS011;62316;48.920;2.342;2023-04-03T16:41:30;3.67;;;2.00;;
73959;SDS011;62316;48.920;2.342;2023-04-03T16:43:55;5.00;;;5.00;;
73959;SDS011;62316;48.920;2.342;2023-04-03T16:46:21;5.00;;;4.75;;
73959;SDS011;62316;48.920;2.342;2023-04-03T16:48:46;5.00;;;5.00;;
73959;SDS011;62316;48.920;2.342;2023-04-03T16:51:12;7.00;;;7.00;;
73959;SDS011;62316;48.920;2.342;2023-04-03T16:53:38;7.33;;;7.33;;
73959;SDS011;62316;48.920;2.342;2023-04-03T16:56:04;2.00;;;2.00;;
73959;SDS011;62316;48.920;2.342;2023-04-03T16:58:30;5.50;;;4.75;;
73959;SDS011;62316;48.920;2.342;2023-04-03T17:00:56;8.00;;;6.00;;
73959;SDS011;62316;48.920;2.342;2023-04-03T17:03:25;3.50;;;3.00;;
73959;SDS011;62316;48.920;2.342;2023-04-03T17:05:52;9.75;;;9.25;;
73959;SDS011;62316;48.920;2.342;2023-04-03T17:08:18;5.75;;;4.50;;
73959;SDS011;62316;48.920;2.342;2023-04-03T17:10:44;4.25;;;4.00;;
73959;SDS011;62316;48.920;2.342;2023-04-03T17:13:09;6.50;;;4.75;;
73959;SDS011;62316;48.920;2.342;2023-04-03T17:15:35;4.67;;;4.67;;
73959;SDS011;62316;48.920;2.342;2023-04-03T17:18:01;6.00;;;6.00;;
73959;SDS011;62316;48.920;2.342;2023-04-03T17:20:27;7.50;;;5.00;;
73959;SDS011;62316;48.920;2.342;2023-04-03T17:22:53;4.25;;;4.25;;
73959;SDS011;62316;48.920;2.342;2023-04-03T17:25:20;14.25;;;8.00;;
73959;SDS011;62316;48.920;2.342;2023-04-03T17:27:45;5.00;;;5.00;;
73959;SDS011;62316;48.920;2.342;2023-04-03T17:30:11;4.00;;;4.00;;
73959;SDS011;62316;48.920;2.342;2023-04-03T17:32:37;4.50;;;4.00;;
73959;SDS011;62316;48.920;2.342;2023-04-03T17:35:03;4.50;;;4.50;;
73959;SDS011;62316;48.920;2.342;2023-04-03T17:37:28;9.00;;;7.00;;
73959;SDS011;62316;48.920;2.342;2023-04-03T17:39:54;7.25;;;7.00;;
73959;SDS011;62316;48.920;2.342;2023-04-03T17:42:20;4.25;;;4.25;;
73959;SDS011;62316;48.920;2.342;2023-04-03T17:44:47;10.50;;;9.75;;
73959;SDS011;62316;48.920;2.342;2023-04-03T17:47:13;8.00;;;8.00;;
73959;SDS011;62316;48.920;2.342;2023-04-03T17:49:38;8.75;;;8.75;;
73959;SDS011;62316;48.920;2.342;2023-04-03T17:52:07;4.50;;;4.50;;
73959;SDS011;62316;48.920;2.342;2023-04-03T17:54:33;8.00;;;8.00;;
73959;SDS011;62316;48.920;2.342;2023-04-03T17:57:17;4.75;;;4.75;;
73959;SDS011;62316;48.920;2.342;2023-04-03T17:59:58;4.50;;;4.50;;
73959;SDS011;62316;48.920;2.342;2023-04-03T18:02:28;6.00;;;6.00;;
73959;SDS011;62316;48.920;2.342;2023-04-03T18:04:54;5.00;;;4.00;;
73959;SDS011;62316;48.920;2.342;2023-04-03T18:07:19;13.00;;;11.75;;
73959;SDS011;62316;48.920;2.342;2023-04-03T18:09:45;4.00;;;4.00;;
73959;SDS011;62316;48.920;2.342;2023-04-03T18:12:14;4.00;;;4.00;;
73959;SDS011;62316;48.920;2.342;2023-04-03T18:14:40;4.00;;;4.00;;
73959;SDS011;62316;48.920;2.342;2023-04-03T18:17:06;4.75;;;4.75;;
73959;SDS011;62316;48.920;2.342;2023-04-03T18:19:32;8.00;;;7.00;;
73959;SDS011;62316;48.920;2.342;2023-04-03T18:22:02;8.00;;;5.50;;
73959;SDS011;62316;48.920;2.342;2023-04-03T18:24:33;4.00;;;4.00;;
73959;SDS011;62316;48.920;2.342;2023-04-03T18:27:12;8.00;;;8.00;;
73959;SDS011;62316;48.920;2.342;2023-04-03T18:29:55;6.50;;;6.50;;
73959;SDS011;62316;48.920;2.342;2023-04-03T18:32:23;3.00;;;3.00;;
73959;SDS011;62316;48.920;2.342;2023-04-03T18:34:48;7.50;;;5.75;;
73959;SDS011;62316;48.920;2.342;2023-04-03T18:37:14;4.75;;;4.25;;
73959;SDS011;62316;48.920;2.342;2023-04-03T18:39:40;4.67;;;4.67;;
73959;SDS011;62316;48.920;2.342;2023-04-03T18:42:13;7.00;;;7.00;;
73959;SDS011;62316;48.920;2.342;2023-04-03T18:44:42;4.00;;;4.00;;
73959;SDS011;62316;48.920;2.342;2023-04-03T18:47:09;8.00;;;8.00;;
73959;SDS011;62316;48.920;2.342;2023-04-03T18:49:35;7.25;;;6.00;;
73959;SDS011;62316;48.920;2.342;2023-04-03T18:52:02;4.00;;;4.00;;
73959;SDS011;62316;48.920;2.342;2023-04-03T18:54:28;9.33;;;9.33;;
73959;SDS011;62316;48.920;2.342;2023-04-03T18:56:54;10.00;;;7.50;;
73959;SDS011;62316;48.920;2.342;2023-04-03T18:59:20;6.50;;;6.50;;
73959;SDS011;62316;48.920;2.342;2023-04-03T19:01:45;9.75;;;9.75;;
73959;SDS011;62316;48.920;2.342;2023-04-03T19:04:11;11.25;;;10.00;;
73959;SDS011;62316;48.920;2.342;2023-04-03T19:06:36;7.00;;;7.00;;
73959;SDS011;62316;48.920;2.342;2023-04-03T19:09:03;11.00;;;11.00;;
73959;SDS011;62316;48.920;2.342;2023-04-03T19:11:32;25.00;;;19.00;;
73959;SDS011;62316;48.920;2.342;2023-04-03T19:13:58;10.25;;;9.00;;
73959;SDS011;62316;48.920;2.342;2023-04-03T19:16:24;11.00;;;9.25;;
73959;SDS011;62316;48.920;2.342;2023-04-03T19:18:50;12.00;;;12.00;;
73959;SDS011;62316;48.920;2.342;2023-04-03T19:21:16;10.25;;;9.75;;
73959;SDS011;62316;48.920;2.342;2023-04-03T19:23:42;10.25;;;6.75;;
73959;SDS011;62316;48.920;2.342;2023-04-03T19:26:09;16.25;;;14.75;;
73959;SDS011;62316;48.920;2.342;2023-04-03T19:28:36;7.50;;;6.25;;
73959;SDS011;62316;48.920;2.342;2023-04-03T19:31:02;8.00;;;8.00;;
73959;SDS011;62316;48.920;2.342;2023-04-03T19:33:39;7.25;;;7.25;;
73959;SDS011;62316;48.920;2.342;2023-04-03T19:36:05;8.50;;;7.25;;
73959;SDS011;62316;48.920;2.342;2023-04-03T19:38:31;12.25;;;9.50;;
73959;SDS011;62316;48.920;2.342;2023-04-03T19:40:57;10.00;;;10.00;;
73959;SDS011;62316;48.920;2.342;2023-04-03T19:43:22;10.50;;;10.50;;
73959;SDS011;62316;48.920;2.342;2023-04-03T19:45:48;9.00;;;8.75;;
73959;SDS011;62316;48.920;2.342;2023-04-03T19:48:14;9.00;;;4.67;;
73959;SDS011;62316;48.920;2.342;2023-04-03T19:50:39;8.00;;;8.00;;
73959;SDS011;62316;48.920;2.342;2023-04-03T19:53:05;9.50;;;9.00;;
73959;SDS011;62316;48.920;2.342;2023-04-03T19:55:32;9.00;;;8.00;;
73959;SDS011;62316;48.920;2.342;2023-04-03T19:57:59;8.00;;;8.00;;
73959;SDS011;62316;48.920;2.342;2023-04-03T20:00:26;9.50;;;6.75;;
73959;SDS011;62316;48.920;2.342;2023-04-03T20:02:53;7.00;;;7.00;;
73959;SDS011;62316;48.920;2.342;2023-04-03T20:05:18;10.25;;;8.75;;
73959;SDS011;62316;48.920;2.342;2023-04-03T20:07:44;9.00;;;8.50;;
73959;SDS011;62316;48.920;2.342;2023-04-03T20:10:09;11.50;;;10.25;;
73959;SDS011;62316;48.920;2.342;2023-04-03T20:12:36;10.25;;;9.25;;
73959;SDS011;62316;48.920;2.342;2023-04-03T20:15:03;10.50;;;9.00;;
73959;SDS011;62316;48.920;2.342;2023-04-03T20:17:31;8.50;;;7.50;;
73959;SDS011;62316;48.920;2.342;2023-04-03T20:19:59;12.00;;;9.75;;
73959;SDS011;62316;48.920;2.342;2023-04-03T20:22:26;9.75;;;9.00;;
73959;SDS011;62316;48.920;2.342;2023-04-03T20:24:52;11.50;;;10.25;;